Terminal Aerodrome Forecast
Issued by NWS

Home | Current Version | Previous Version | Text Only | Print | Product List | Glossary On
Versions: 1 2 3 4 5 6 7 8 9 10 11 12 13 14 15
000
FTUS45 KVEF 012330
TAFHND
TAF
KHND 012330Z 0200/0224 24014G25KT P6SM FEW120 SCT250
     FM020400 01020G28KT P6SM VCTS SCT070 BKN100CB BKN200
     FM020700 03005KT P6SM SCT100 SCT200
     FM022100 18010KT P6SM SKC=

USA.gov is the U.S. government's official web portal to all federal, state and local government web resources and services.